createdAt,value
2023-05-01T00:00:27.587Z,94981.00
2023-05-01T00:01:27.702Z,94979.00
2023-05-01T00:02:28.027Z,94981.00
2023-05-01T00:03:27.816Z,94981.00
2023-05-01T00:04:27.666Z,94977.00
2023-05-01T00:05:27.550Z,94977.00
2023-05-01T00:06:27.975Z,94979.00
2023-05-01T00:07:28.304Z,94977.00
2023-05-01T00:08:27.505Z,94977.00
2023-05-01T00:09:27.862Z,94977.00
2023-05-01T00:10:27.579Z,94979.00
2023-05-01T00:11:27.576Z,94977.00
2023-05-01T00:12:27.487Z,94975.00
2023-05-01T00:13:27.534Z,94977.00
2023-05-01T00:14:27.537Z,94975.00
2023-05-01T00:15:27.494Z,94975.00
2023-05-01T00:16:27.577Z,94973.00
2023-05-01T00:17:27.832Z,94975.00
2023-05-01T00:18:27.516Z,94971.00
2023-05-01T00:19:27.484Z,94971.00
2023-05-01T00:20:27.441Z,94973.00
2023-05-01T00:21:27.433Z,94973.00
2023-05-01T00:22:27.813Z,94973.00
2023-05-01T00:23:27.426Z,94975.00
2023-05-01T00:24:27.435Z,94969.00
2023-05-01T00:25:27.417Z,94967.00
2023-05-01T00:26:27.443Z,94971.00
2023-05-01T00:27:27.441Z,94971.00
2023-05-01T00:28:27.411Z,94969.00
2023-05-01T00:29:27.401Z,94969.00
2023-05-01T00:30:27.381Z,94965.00
2023-05-01T00:31:27.491Z,94965.00
2023-05-01T00:32:27.379Z,94961.00
2023-05-01T00:33:27.361Z,94963.00
2023-05-01T00:34:27.349Z,94961.00
2023-05-01T00:35:27.333Z,94965.00
2023-05-01T00:36:27.401Z,94961.00
2023-05-01T00:37:27.370Z,94959.00
2023-05-01T00:38:27.326Z,94959.00
2023-05-01T00:39:27.626Z,94961.00
2023-05-01T00:40:27.340Z,94963.00
2023-05-01T00:41:27.308Z,94963.00
2023-05-01T00:42:27.295Z,94967.00
2023-05-01T00:43:27.294Z,94969.00
2023-05-01T00:44:27.662Z,94965.00
2023-05-01T00:45:27.250Z,94967.00
2023-05-01T00:46:27.338Z,94963.00
2023-05-01T00:47:27.313Z,94959.00
2023-05-01T00:48:27.211Z,94957.00
2023-05-01T00:49:27.258Z,94955.00
2023-05-01T00:50:27.279Z,94959.00
2023-05-01T00:51:27.257Z,94953.00
2023-05-01T00:52:27.218Z,94955.00
2023-05-01T00:53:27.254Z,94955.00
2023-05-01T00:54:27.857Z,94953.00
2023-05-01T00:55:27.270Z,94955.00
2023-05-01T00:56:27.417Z,94957.00
2023-05-01T00:57:27.315Z,94955.00
2023-05-01T00:58:27.288Z,94953.00
2023-05-01T00:59:27.409Z,94949.00
2023-05-01T01:00:27.321Z,94949.00
2023-05-01T01:01:27.390Z,94951.00
2023-05-01T01:02:27.460Z,94949.00
2023-05-01T01:03:27.379Z,94947.00
2023-05-01T01:04:27.427Z,94947.00
2023-05-01T01:05:27.381Z,94947.00
2023-05-01T01:06:27.426Z,94945.00
2023-05-01T01:07:27.416Z,94945.00
2023-05-01T01:08:27.414Z,94943.00
2023-05-01T01:09:27.427Z,94943.00
2023-05-01T01:10:27.433Z,94943.00
2023-05-01T01:11:27.447Z,94943.00
2023-05-01T01:12:27.434Z,94945.00
2023-05-01T01:13:27.448Z,94943.00
2023-05-01T01:14:27.484Z,94941.00
2023-05-01T01:15:27.530Z,94941.00
2023-05-01T01:16:27.597Z,94941.00
2023-05-01T01:17:27.619Z,94939.00
2023-05-01T01:18:27.612Z,94941.00
2023-05-01T01:19:27.620Z,94945.00
2023-05-01T01:20:27.670Z,94945.00
2023-05-01T01:21:27.781Z,94943.00
2023-05-01T01:22:27.791Z,94939.00
2023-05-01T01:23:27.796Z,94941.00
2023-05-01T01:24:27.892Z,94941.00
2023-05-01T01:25:27.845Z,94939.00
2023-05-01T01:26:27.889Z,94939.00
2023-05-01T01:27:27.912Z,94943.00
2023-05-01T01:28:27.963Z,94943.00
2023-05-01T01:29:27.915Z,94941.00
2023-05-01T01:30:28.260Z,94941.00
2023-05-01T01:31:28.040Z,94941.00
2023-05-01T01:32:28.009Z,94943.00
2023-05-01T01:33:28.009Z,94945.00
2023-05-01T01:34:28.067Z,94939.00
2023-05-01T01:35:28.132Z,94939.00
2023-05-01T01:36:28.080Z,94937.00
2023-05-01T01:37:28.090Z,94937.00
2023-05-01T01:38:28.091Z,94937.00
2023-05-01T01:39:28.078Z,94935.00
2023-05-01T01:40:28.070Z,94937.00
2023-05-01T01:41:28.116Z,94935.00
2023-05-01T01:42:28.161Z,94932.00
2023-05-01T01:43:28.196Z,94937.00
2023-05-01T01:44:28.200Z,94935.00
2023-05-01T01:45:28.215Z,94934.00
2023-05-01T01:46:28.237Z,94934.00
2023-05-01T01:47:28.282Z,94932.00
2023-05-01T01:48:28.273Z,94932.00
2023-05-01T01:49:28.323Z,94932.00
2023-05-01T01:50:28.313Z,94926.00
2023-05-01T01:51:28.363Z,94932.00
2023-05-01T01:52:28.358Z,94926.00
2023-05-01T01:53:28.419Z,94924.00
2023-05-01T01:54:28.424Z,94928.00
2023-05-01T01:55:28.477Z,94928.00
2023-05-01T01:56:28.551Z,94930.00
2023-05-01T01:57:28.559Z,94932.00
2023-05-01T01:58:28.596Z,94930.00
2023-05-01T01:59:28.612Z,94926.00
2023-05-01T02:00:28.673Z,94926.00
2023-05-01T02:01:28.784Z,94924.00
2023-05-01T02:02:28.803Z,94926.00
2023-05-01T02:03:28.881Z,94930.00
2023-05-01T02:04:28.845Z,94926.00
2023-05-01T02:05:28.874Z,94924.00
2023-05-01T02:06:28.905Z,94920.00
2023-05-01T02:07:28.881Z,94922.00
2023-05-01T02:08:28.893Z,94924.00
2023-05-01T02:09:28.915Z,94924.00
2023-05-01T02:10:28.925Z,94926.00
2023-05-01T02:11:28.988Z,94924.00
2023-05-01T02:12:29.018Z,94926.00
2023-05-01T02:13:29.940Z,94920.00
2023-05-01T02:14:29.060Z,94922.00
2023-05-01T02:15:29.069Z,94922.00
2023-05-01T02:16:29.150Z,94920.00
2023-05-01T02:17:29.160Z,94918.00
2023-05-01T02:18:29.138Z,94918.00
2023-05-01T02:19:29.191Z,94918.00
2023-05-01T02:20:29.238Z,94920.00
2023-05-01T02:21:29.327Z,94916.00
2023-05-01T02:22:29.316Z,94916.00
2023-05-01T02:23:29.317Z,94914.00
2023-05-01T02:24:29.427Z,94912.00
2023-05-01T02:25:29.688Z,94914.00
2023-05-01T02:26:30.387Z,94912.00
2023-05-01T02:27:29.488Z,94914.00
2023-05-01T02:28:29.577Z,94914.00
2023-05-01T02:29:29.559Z,94904.00
2023-05-01T02:30:29.580Z,94904.00
2023-05-01T02:31:29.699Z,94900.00
2023-05-01T02:32:29.675Z,94898.00
2023-05-01T02:33:29.695Z,94898.00
2023-05-01T02:34:29.707Z,94898.00
2023-05-01T02:35:29.783Z,94900.00
2023-05-01T02:36:30.243Z,94902.00
2023-05-01T02:37:29.836Z,94900.00
2023-05-01T02:38:29.893Z,94902.00
2023-05-01T02:39:29.916Z,94898.00
2023-05-01T02:40:29.917Z,94900.00
2023-05-01T02:41:29.986Z,94898.00
2023-05-01T02:42:29.998Z,94896.00
2023-05-01T02:43:30.047Z,94896.00
2023-05-01T02:44:30.107Z,94894.00
2023-05-01T02:45:30.244Z,94894.00
2023-05-01T02:46:30.295Z,94894.00
2023-05-01T02:47:30.216Z,94896.00
2023-05-01T02:48:30.196Z,94894.00
2023-05-01T02:49:30.223Z,94894.00
2023-05-01T02:50:30.381Z,94892.00
2023-05-01T02:51:30.654Z,94892.00
2023-05-01T02:52:30.393Z,94890.00
2023-05-01T02:53:30.427Z,94888.00
2023-05-01T02:54:30.463Z,94890.00
2023-05-01T02:55:30.435Z,94888.00
2023-05-01T02:56:30.494Z,94888.00
2023-05-01T02:57:30.482Z,94886.00
2023-05-01T02:58:31.380Z,94886.00
2023-05-01T02:59:30.522Z,94888.00
2023-05-01T03:00:30.587Z,94886.00
2023-05-01T03:01:30.669Z,94886.00
2023-05-01T03:02:30.605Z,94886.00
2023-05-01T03:03:30.651Z,94884.00
2023-05-01T03:04:30.744Z,94882.00
2023-05-01T03:05:30.716Z,94884.00
2023-05-01T03:06:30.846Z,94884.00
2023-05-01T03:07:30.797Z,94886.00
2023-05-01T03:08:30.827Z,94884.00
2023-05-01T03:09:30.864Z,94886.00
2023-05-01T03:10:30.893Z,94884.00
2023-05-01T03:11:30.985Z,94884.00
2023-05-01T03:12:31.037Z,94882.00
2023-05-01T03:13:31.036Z,94881.00
2023-05-01T03:14:31.118Z,94881.00
2023-05-01T03:15:31.183Z,94882.00
2023-05-01T03:16:31.253Z,94879.00
2023-05-01T03:17:31.248Z,94881.00
2023-05-01T03:18:31.254Z,94879.00
2023-05-01T03:19:31.276Z,94877.00
2023-05-01T03:20:31.313Z,94877.00
2023-05-01T03:21:31.366Z,94877.00
2023-05-01T03:22:31.355Z,94879.00
2023-05-01T03:23:31.412Z,94877.00
2023-05-01T03:24:31.431Z,94877.00
2023-05-01T03:25:31.432Z,94877.00
2023-05-01T03:26:31.516Z,94873.00
2023-05-01T03:27:31.519Z,94873.00
2023-05-01T03:28:31.587Z,94873.00
2023-05-01T03:29:31.575Z,94871.00
2023-05-01T03:30:31.621Z,94871.00
2023-05-01T03:31:31.642Z,94871.00
2023-05-01T03:32:31.657Z,94871.00
2023-05-01T03:33:31.681Z,94871.00
2023-05-01T03:34:31.707Z,94869.00
2023-05-01T03:35:31.834Z,94863.00
2023-05-01T03:36:31.804Z,94865.00
2023-05-01T03:37:31.814Z,94867.00
2023-05-01T03:38:31.817Z,94867.00
2023-05-01T03:39:31.884Z,94867.00
2023-05-01T03:40:31.871Z,94867.00
2023-05-01T03:41:31.948Z,94865.00
2023-05-01T03:42:31.950Z,94863.00
2023-05-01T03:43:32.118Z,94859.00
2023-05-01T03:44:32.074Z,94857.00
2023-05-01T03:45:32.123Z,94857.00
2023-05-01T03:46:32.359Z,94859.00
2023-05-01T03:47:32.256Z,94861.00
2023-05-01T03:48:32.292Z,94861.00
2023-05-01T03:49:32.304Z,94861.00
2023-05-01T03:50:32.318Z,94859.00
2023-05-01T03:51:32.678Z,94857.00
2023-05-01T03:52:32.382Z,94855.00
2023-05-01T03:53:32.538Z,94853.00
2023-05-01T03:54:32.529Z,94855.00
2023-05-01T03:55:32.572Z,94855.00
2023-05-01T03:56:32.621Z,94855.00
2023-05-01T03:57:32.723Z,94855.00
2023-05-01T03:58:32.771Z,94851.00
2023-05-01T03:59:32.787Z,94851.00
2023-05-01T04:00:32.917Z,94851.00
2023-05-01T04:01:32.959Z,94853.00
2023-05-01T04:02:33.067Z,94849.00
2023-05-01T04:03:33.136Z,94849.00
2023-05-01T04:04:33.277Z,94849.00
2023-05-01T04:05:33.152Z,94849.00
2023-05-01T04:06:33.283Z,94849.00
2023-05-01T04:07:33.254Z,94847.00
2023-05-01T04:08:33.323Z,94847.00
2023-05-01T04:09:33.323Z,94849.00
2023-05-01T04:10:33.424Z,94851.00
2023-05-01T04:11:33.437Z,94849.00
2023-05-01T04:12:33.489Z,94847.00
2023-05-01T04:13:33.496Z,94849.00
2023-05-01T04:14:33.865Z,94847.00
2023-05-01T04:15:33.921Z,94851.00
2023-05-01T04:16:33.754Z,94849.00
2023-05-01T04:17:33.719Z,94851.00
2023-05-01T04:18:33.729Z,94847.00
2023-05-01T04:19:33.839Z,94849.00
2023-05-01T04:20:34.156Z,94849.00
2023-05-01T04:21:33.860Z,94849.00
2023-05-01T04:22:33.920Z,94851.00
2023-05-01T04:23:34.278Z,94849.00
2023-05-01T04:24:33.965Z,94851.00
2023-05-01T04:25:34.053Z,94847.00
2023-05-01T04:26:34.087Z,94847.00
2023-05-01T04:27:34.108Z,94845.00
2023-05-01T04:28:34.518Z,94847.00
2023-05-01T04:29:34.263Z,94845.00
2023-05-01T04:30:34.280Z,94847.00
2023-05-01T04:31:34.365Z,94845.00
2023-05-01T04:32:34.719Z,94845.00
2023-05-01T04:33:34.398Z,94845.00
2023-05-01T04:34:34.410Z,94847.00
2023-05-01T04:35:34.416Z,94849.00
2023-05-01T04:36:34.829Z,94849.00
2023-05-01T04:37:34.478Z,94847.00
2023-05-01T04:38:34.552Z,94843.00
2023-05-01T04:39:34.540Z,94843.00
2023-05-01T04:40:34.590Z,94843.00
2023-05-01T04:41:34.592Z,94843.00
2023-05-01T04:42:34.622Z,94843.00
2023-05-01T04:43:34.750Z,94845.00
2023-05-01T04:44:34.692Z,94845.00
2023-05-01T04:45:34.697Z,94843.00
2023-05-01T04:46:34.779Z,94843.00
2023-05-01T04:47:34.812Z,94845.00
2023-05-01T04:48:34.816Z,94843.00
2023-05-01T04:49:34.827Z,94847.00
2023-05-01T04:50:34.844Z,94845.00
2023-05-01T04:51:34.856Z,94845.00
2023-05-01T04:52:34.874Z,94845.00
2023-05-01T04:53:34.911Z,94845.00
2023-05-01T04:54:34.920Z,94847.00
2023-05-01T04:55:34.941Z,94845.00
2023-05-01T04:56:34.972Z,94847.00
2023-05-01T04:57:35.024Z,94851.00
2023-05-01T04:58:35.010Z,94853.00
2023-05-01T04:59:34.964Z,94851.00
2023-05-01T05:00:35.021Z,94855.00
2023-05-01T05:02:54.710Z,94855.00
2023-05-01T05:03:55.528Z,94855.00
2023-05-01T05:04:54.658Z,94857.00
2023-05-01T05:05:54.645Z,94855.00
2023-05-01T05:06:54.674Z,94853.00
2023-05-01T05:07:54.636Z,94855.00
2023-05-01T05:08:54.635Z,94853.00
2023-05-01T05:09:54.807Z,94855.00
2023-05-01T05:10:54.594Z,94859.00
2023-05-01T05:11:54.692Z,94859.00
2023-05-01T05:12:54.606Z,94859.00
2023-05-01T05:13:54.542Z,94859.00
2023-05-01T05:14:54.619Z,94859.00
2023-05-01T05:15:54.593Z,94861.00
2023-05-01T05:16:54.615Z,94861.00
2023-05-01T05:17:56.490Z,94859.00
2023-05-01T05:18:54.556Z,94859.00
2023-05-01T05:19:55.688Z,94855.00
2023-05-01T05:20:54.543Z,94857.00
2023-05-01T05:21:54.501Z,94855.00
2023-05-01T05:22:54.511Z,94855.00
2023-05-01T05:23:54.481Z,94853.00
2023-05-01T05:24:54.480Z,94851.00
2023-05-01T05:25:54.468Z,94851.00
2023-05-01T05:26:54.691Z,94857.00
2023-05-01T05:27:54.545Z,94855.00
2023-05-01T05:28:54.560Z,94855.00
2023-05-01T05:29:54.768Z,94853.00
2023-05-01T05:30:54.558Z,94853.00
2023-05-01T05:31:54.627Z,94855.00
2023-05-01T05:32:54.568Z,94855.00
2023-05-01T05:33:54.559Z,94851.00
2023-05-01T05:34:54.597Z,94853.00
2023-05-01T05:35:54.618Z,94851.00
2023-05-01T05:36:54.692Z,94857.00
2023-05-01T05:37:54.682Z,94859.00
2023-05-01T05:38:54.662Z,94859.00
2023-05-01T05:39:54.826Z,94859.00
2023-05-01T05:40:54.710Z,94859.00
2023-05-01T05:41:54.709Z,94861.00
2023-05-01T05:42:54.644Z,94861.00
2023-05-01T05:43:54.748Z,94863.00
2023-05-01T05:44:54.810Z,94863.00
2023-05-01T05:46:02.565Z,94861.00
2023-05-01T05:46:54.910Z,94863.00
2023-05-01T05:47:54.882Z,94859.00
2023-05-01T05:48:54.829Z,94859.00
2023-05-01T05:49:55.056Z,94859.00
2023-05-01T05:50:54.843Z,94859.00
2023-05-01T05:51:54.825Z,94859.00
2023-05-01T05:52:54.811Z,94857.00
2023-05-01T05:53:54.862Z,94857.00
2023-05-01T05:54:54.784Z,94859.00
2023-05-01T05:55:54.809Z,94859.00
2023-05-01T05:56:54.889Z,94859.00
2023-05-01T05:57:54.801Z,94857.00
2023-05-01T05:58:54.774Z,94859.00
2023-05-01T05:59:55.000Z,94861.00
2023-05-01T06:00:54.788Z,94861.00
2023-05-01T06:01:55.060Z,94857.00
2023-05-01T06:02:54.902Z,94861.00
2023-05-01T06:03:54.809Z,94857.00
2023-05-01T06:04:54.789Z,94861.00
2023-05-01T06:05:54.935Z,94861.00
2023-05-01T06:06:54.930Z,94859.00
2023-05-01T06:07:54.701Z,94861.00
2023-05-01T06:08:54.720Z,94859.00
2023-05-01T06:09:54.957Z,94853.00
2023-05-01T06:10:54.729Z,94853.00
2023-05-01T06:11:54.846Z,94851.00
2023-05-01T06:12:59.665Z,94851.00
2023-05-01T06:13:55.900Z,94851.00
2023-05-01T06:14:54.885Z,94851.00
2023-05-01T06:15:55.730Z,94849.00
2023-05-01T06:16:54.795Z,94853.00
2023-05-01T06:17:54.853Z,94851.00
2023-05-01T06:18:54.879Z,94851.00
2023-05-01T06:19:55.136Z,94849.00
2023-05-01T06:20:54.777Z,94853.00
2023-05-01T06:21:54.806Z,94851.00
2023-05-01T06:22:54.805Z,94855.00
2023-05-01T06:23:54.827Z,94851.00
2023-05-01T06:24:54.832Z,94851.00
2023-05-01T06:25:54.858Z,94849.00
2023-05-01T06:26:54.853Z,94851.00
2023-05-01T06:27:54.871Z,94849.00
2023-05-01T06:28:54.858Z,94849.00
2023-05-01T06:29:55.067Z,94849.00
2023-05-01T06:30:54.956Z,94849.00
2023-05-01T06:31:54.998Z,94849.00
2023-05-01T06:32:54.973Z,94851.00
2023-05-01T06:33:54.910Z,94847.00
2023-05-01T06:34:55.005Z,94845.00
2023-05-01T06:35:54.995Z,94843.00
2023-05-01T06:36:54.999Z,94839.00
2023-05-01T06:37:55.087Z,94837.00
2023-05-01T06:38:55.101Z,94837.00
2023-05-01T06:39:55.340Z,94837.00
2023-05-01T06:40:55.267Z,94841.00
2023-05-01T06:41:55.367Z,94841.00
2023-05-01T06:42:55.342Z,94843.00
2023-05-01T06:43:55.378Z,94841.00
2023-05-01T06:44:55.361Z,94843.00
2023-05-01T06:45:55.392Z,94841.00
2023-05-01T06:46:55.514Z,94841.00
2023-05-01T06:47:55.726Z,94843.00
2023-05-01T06:48:55.577Z,94843.00
2023-05-01T06:49:55.798Z,94843.00
2023-05-01T06:50:55.601Z,94847.00
2023-05-01T06:51:55.590Z,94849.00
2023-05-01T06:52:55.591Z,94845.00
2023-05-01T06:53:55.634Z,94843.00
2023-05-01T06:54:55.650Z,94847.00
2023-05-01T06:55:55.611Z,94847.00
2023-05-01T06:56:55.651Z,94847.00
2023-05-01T06:57:55.664Z,94847.00
2023-05-01T06:58:55.673Z,94847.00
2023-05-01T06:59:55.906Z,94847.00
2023-05-01T07:00:55.618Z,94847.00
2023-05-01T07:01:55.730Z,94849.00
2023-05-01T07:02:55.748Z,94849.00
2023-05-01T07:03:56.096Z,94843.00
2023-05-01T07:04:55.869Z,94841.00
2023-05-01T07:05:55.931Z,94843.00
2023-05-01T07:06:55.968Z,94845.00
2023-05-01T07:08:01.367Z,94841.00
2023-05-01T07:08:57.081Z,94845.00
2023-05-01T07:09:56.108Z,94843.00
2023-05-01T07:10:55.974Z,94845.00
2023-05-01T07:11:55.981Z,94843.00
2023-05-01T07:12:55.950Z,94845.00
2023-05-01T07:13:55.982Z,94841.00
2023-05-01T07:14:56.023Z,94843.00
2023-05-01T07:15:56.070Z,94843.00
2023-05-01T07:16:56.043Z,94847.00
2023-05-01T07:17:56.071Z,94845.00
2023-05-01T07:18:56.115Z,94847.00
2023-05-01T07:19:56.260Z,94843.00
2023-05-01T07:20:56.143Z,94845.00
2023-05-01T07:21:56.243Z,94843.00
2023-05-01T07:22:56.263Z,94845.00
2023-05-01T07:23:56.382Z,94847.00
2023-05-01T07:24:56.361Z,94847.00
2023-05-01T07:25:56.376Z,94849.00
2023-05-01T07:27:07.257Z,94849.00
2023-05-01T07:27:56.364Z,94851.00
2023-05-01T07:28:56.334Z,94849.00
2023-05-01T07:29:56.601Z,94847.00
2023-05-01T07:30:56.339Z,94845.00
2023-05-01T07:31:56.460Z,94845.00
2023-05-01T07:32:56.373Z,94839.00
2023-05-01T07:33:56.407Z,94839.00
2023-05-01T07:34:56.315Z,94839.00
2023-05-01T07:35:56.330Z,94837.00
2023-05-01T07:36:56.440Z,94837.00
2023-05-01T07:37:56.366Z,94835.00
2023-05-01T07:38:56.397Z,94835.00
2023-05-01T07:39:56.815Z,94837.00
2023-05-01T07:40:56.568Z,94837.00
2023-05-01T07:41:56.668Z,94837.00
2023-05-01T07:42:56.674Z,94837.00
2023-05-01T07:43:56.614Z,94834.00
2023-05-01T07:44:56.693Z,94837.00
2023-05-01T07:45:56.757Z,94834.00
2023-05-01T07:46:56.715Z,94835.00
2023-05-01T07:47:56.754Z,94834.00
2023-05-01T07:48:56.821Z,94834.00
2023-05-01T07:49:56.867Z,94830.00
2023-05-01T07:50:56.842Z,94832.00
2023-05-01T07:51:56.938Z,94834.00
2023-05-01T07:52:56.848Z,94835.00
2023-05-01T07:53:56.904Z,94839.00
2023-05-01T07:54:56.985Z,94837.00
2023-05-01T07:55:57.062Z,94839.00
2023-05-01T07:56:57.102Z,94837.00
2023-05-01T07:57:57.111Z,94837.00
2023-05-01T07:58:57.088Z,94835.00
2023-05-01T07:59:57.350Z,94834.00
2023-05-01T08:00:57.202Z,94832.00
2023-05-01T08:01:57.256Z,94832.00
2023-05-01T08:02:57.222Z,94834.00
2023-05-01T08:03:57.339Z,94830.00
2023-05-01T08:04:57.245Z,94832.00
2023-05-01T08:05:57.325Z,94834.00
2023-05-01T08:06:57.443Z,94834.00
2023-05-01T08:07:57.308Z,94834.00
2023-05-01T08:08:57.370Z,94834.00
2023-05-01T08:09:59.995Z,94832.00
2023-05-01T08:10:57.375Z,94830.00
2023-05-01T08:11:57.360Z,94828.00
2023-05-01T08:12:57.637Z,94826.00
2023-05-01T08:13:57.354Z,94826.00
2023-05-01T08:14:57.306Z,94830.00
2023-05-01T08:15:57.313Z,94828.00
2023-05-01T08:16:57.379Z,94828.00
2023-05-01T08:17:57.284Z,94830.00
2023-05-01T08:18:57.235Z,94832.00
2023-05-01T08:19:57.363Z,94832.00
2023-05-01T08:20:57.264Z,94834.00
2023-05-01T08:21:57.290Z,94834.00
2023-05-01T08:22:57.267Z,94830.00
2023-05-01T08:23:57.263Z,94832.00
2023-05-01T08:24:57.223Z,94826.00
2023-05-01T08:25:57.289Z,94830.00
2023-05-01T08:26:57.229Z,94828.00
2023-05-01T08:27:57.263Z,94822.00
2023-05-01T08:28:57.207Z,94828.00
2023-05-01T08:29:57.432Z,94828.00
2023-05-01T08:30:57.236Z,94826.00
2023-05-01T08:31:57.226Z,94828.00
2023-05-01T08:32:57.287Z,94826.00
2023-05-01T08:33:57.233Z,94826.00
2023-05-01T08:34:57.238Z,94828.00
2023-05-01T08:35:57.155Z,94826.00
2023-05-01T08:36:57.257Z,94826.00
2023-05-01T08:37:57.154Z,94822.00
2023-05-01T08:38:57.160Z,94824.00
2023-05-01T08:39:57.340Z,94822.00
2023-05-01T08:40:57.107Z,94822.00
2023-05-01T08:41:57.154Z,94820.00
2023-05-01T08:42:57.214Z,94818.00
2023-05-01T08:43:57.128Z,94816.00
2023-05-01T08:44:57.118Z,94816.00
2023-05-01T08:45:57.122Z,94814.00
2023-05-01T08:46:57.166Z,94818.00
2023-05-01T08:47:57.106Z,94814.00
2023-05-01T08:48:57.051Z,94818.00
2023-05-01T08:49:57.327Z,94814.00
2023-05-01T08:50:57.064Z,94814.00
2023-05-01T08:51:57.107Z,94814.00
2023-05-01T08:52:57.052Z,94816.00
2023-05-01T08:53:57.082Z,94814.00
2023-05-01T08:54:57.045Z,94814.00
2023-05-01T08:55:57.052Z,94814.00
2023-05-01T08:56:57.001Z,94812.00
2023-05-01T08:57:57.001Z,94812.00
2023-05-01T08:58:57.012Z,94810.00
2023-05-01T08:59:57.204Z,94810.00
2023-05-01T09:00:57.007Z,94812.00
2023-05-01T09:01:57.019Z,94812.00
2023-05-01T09:02:56.998Z,94810.00
2023-05-01T09:03:57.017Z,94812.00
2023-05-01T09:04:57.015Z,94812.00
2023-05-01T09:05:57.081Z,94812.00
2023-05-01T09:06:57.101Z,94810.00
2023-05-01T09:07:57.176Z,94810.00
2023-05-01T09:08:57.210Z,94810.00
2023-05-01T09:09:57.420Z,94806.00
2023-05-01T09:10:57.296Z,94802.00
2023-05-01T09:11:57.361Z,94802.00
2023-05-01T09:12:57.372Z,94802.00
2023-05-01T09:13:57.414Z,94806.00
2023-05-01T09:14:57.406Z,94800.00
2023-05-01T09:15:57.556Z,94800.00
2023-05-01T09:16:57.564Z,94804.00
2023-05-01T09:17:57.572Z,94800.00
2023-05-01T09:18:57.512Z,94798.00
2023-05-01T09:19:57.725Z,94800.00
2023-05-01T09:20:57.597Z,94802.00
2023-05-01T09:21:57.647Z,94800.00
2023-05-01T09:22:57.618Z,94800.00
2023-05-01T09:23:57.597Z,94796.00
2023-05-01T09:24:57.640Z,94802.00
2023-05-01T09:25:57.696Z,94798.00
2023-05-01T09:26:57.774Z,94800.00
2023-05-01T09:27:57.773Z,94795.00
2023-05-01T09:28:57.877Z,94791.00
2023-05-01T09:29:58.039Z,94795.00
2023-05-01T09:30:57.812Z,94791.00
2023-05-01T09:31:57.845Z,94787.00
2023-05-01T09:32:57.895Z,94787.00
2023-05-01T09:33:57.914Z,94785.00
2023-05-01T09:34:58.002Z,94783.00
2023-05-01T09:35:58.049Z,94783.00
2023-05-01T09:36:58.028Z,94779.00
2023-05-01T09:37:58.014Z,94779.00
2023-05-01T09:38:58.034Z,94775.00
2023-05-01T09:39:58.268Z,94775.00
2023-05-01T09:40:58.094Z,94771.00
2023-05-01T09:41:58.128Z,94773.00
2023-05-01T09:42:58.071Z,94771.00
2023-05-01T09:43:58.106Z,94769.00
2023-05-01T09:44:58.097Z,94771.00
2023-05-01T09:45:58.273Z,94767.00
2023-05-01T09:46:58.281Z,94769.00
2023-05-01T09:47:58.332Z,94775.00
2023-05-01T09:48:58.335Z,94771.00
2023-05-01T09:49:58.561Z,94771.00
2023-05-01T09:50:58.363Z,94765.00
2023-05-01T09:51:58.401Z,94765.00
2023-05-01T09:52:58.379Z,94767.00
2023-05-01T09:53:58.411Z,94765.00
2023-05-01T09:54:58.451Z,94765.00
2023-05-01T09:55:58.452Z,94765.00
2023-05-01T09:56:58.534Z,94763.00
2023-05-01T09:57:58.468Z,94761.00
2023-05-01T09:58:58.517Z,94763.00
2023-05-01T09:59:58.663Z,94759.00
2023-05-01T10:00:58.703Z,94759.00
2023-05-01T10:01:58.747Z,94761.00
2023-05-01T10:02:58.750Z,94759.00
2023-05-01T10:03:58.861Z,94757.00
2023-05-01T10:04:58.781Z,94753.00
2023-05-01T10:05:58.791Z,94749.00
2023-05-01T10:06:58.796Z,94749.00
2023-05-01T10:08:58.908Z,94747.00
2023-05-01T10:10:01.495Z,94747.00
2023-05-01T10:10:58.957Z,94747.00
2023-05-01T10:11:59.007Z,94747.00
2023-05-01T10:12:59.019Z,94741.00
2023-05-01T10:13:58.994Z,94743.00
2023-05-01T10:15:00.532Z,94741.00
2023-05-01T10:15:58.945Z,94738.00
2023-05-01T10:16:59.096Z,94740.00
2023-05-01T10:17:59.024Z,94736.00
2023-05-01T10:18:59.023Z,94740.00
2023-05-01T10:19:59.087Z,94741.00
2023-05-01T10:20:58.942Z,94740.00
2023-05-01T10:21:58.969Z,94738.00
2023-05-01T10:22:58.955Z,94738.00
2023-05-01T10:23:58.885Z,94734.00
2023-05-01T10:24:58.902Z,94736.00
2023-05-01T10:25:59.824Z,94738.00
2023-05-01T10:26:58.879Z,94734.00
2023-05-01T10:27:58.865Z,94738.00
2023-05-01T10:28:58.906Z,94736.00
2023-05-01T10:29:59.187Z,94734.00
2023-05-01T10:30:58.982Z,94734.00
2023-05-01T10:31:59.103Z,94738.00
2023-05-01T10:32:59.029Z,94732.00
2023-05-01T10:33:58.881Z,94732.00
2023-05-01T10:34:59.099Z,94728.00
2023-05-01T10:35:58.972Z,94730.00
2023-05-01T10:36:58.980Z,94728.00
2023-05-01T10:37:58.969Z,94726.00
2023-05-01T10:38:58.986Z,94722.00
2023-05-01T10:39:59.112Z,94726.00
2023-05-01T10:40:59.138Z,94722.00
2023-05-01T10:41:59.181Z,94720.00
2023-05-01T10:42:59.074Z,94718.00
2023-05-01T10:43:59.125Z,94716.00
2023-05-01T10:44:59.098Z,94716.00
2023-05-01T10:45:59.161Z,94716.00
2023-05-01T10:46:59.182Z,94714.00
2023-05-01T10:47:59.246Z,94712.00
2023-05-01T10:48:59.144Z,94712.00
2023-05-01T10:49:59.149Z,94712.00
2023-05-01T10:50:59.236Z,94710.00
2023-05-01T10:51:59.287Z,94708.00
2023-05-01T10:52:59.238Z,94706.00
2023-05-01T10:53:59.272Z,94699.00
2023-05-01T10:54:59.310Z,94701.00
2023-05-01T10:55:59.299Z,94699.00
2023-05-01T10:56:59.392Z,94697.00
2023-05-01T10:57:59.431Z,94691.00
2023-05-01T10:58:59.474Z,94695.00
2023-05-01T10:59:59.447Z,94695.00
2023-05-01T11:00:59.546Z,94693.00
2023-05-01T11:01:59.604Z,94691.00
2023-05-01T11:02:59.686Z,94689.00
2023-05-01T11:03:59.676Z,94685.00
2023-05-01T11:04:59.938Z,94685.00
2023-05-01T11:05:59.942Z,94685.00
2023-05-01T11:06:59.934Z,94683.00
2023-05-01T11:07:59.883Z,94683.00
2023-05-01T11:08:59.801Z,94683.00
2023-05-01T11:09:59.910Z,94681.00
2023-05-01T11:10:59.946Z,94679.00
2023-05-01T11:12:00.057Z,94679.00
2023-05-01T11:13:00.086Z,94677.00
2023-05-01T11:14:00.054Z,94675.00
2023-05-01T11:15:00.230Z,94679.00
2023-05-01T11:16:00.203Z,94675.00
2023-05-01T11:17:00.275Z,94669.00
2023-05-01T11:18:00.250Z,94667.00
2023-05-01T11:19:00.316Z,94673.00
2023-05-01T11:20:00.347Z,94675.00
2023-05-01T11:21:00.411Z,94673.00
2023-05-01T11:22:00.415Z,94673.00
2023-05-01T11:23:00.423Z,94673.00
2023-05-01T11:24:00.422Z,94677.00
2023-05-01T11:25:00.569Z,94669.00
2023-05-01T11:26:00.434Z,94669.00
2023-05-01T11:27:01.091Z,94665.00
2023-05-01T11:28:00.464Z,94671.00
2023-05-01T11:29:00.505Z,94669.00
2023-05-01T11:30:00.599Z,94663.00
2023-05-01T11:31:00.568Z,94665.00
2023-05-01T11:32:00.824Z,94665.00
2023-05-01T11:33:00.776Z,94665.00
2023-05-01T11:34:00.685Z,94661.00
2023-05-01T11:35:00.754Z,94657.00
2023-05-01T11:36:00.785Z,94657.00
2023-05-01T11:37:00.826Z,94648.00
2023-05-01T11:38:00.832Z,94657.00
2023-05-01T11:39:00.865Z,94648.00
2023-05-01T11:40:00.940Z,94644.00
2023-05-01T11:41:00.949Z,94642.00
2023-05-01T11:42:00.977Z,94648.00
2023-05-01T11:43:00.963Z,94646.00
2023-05-01T11:44:01.007Z,94646.00
2023-05-01T11:45:01.036Z,94648.00
2023-05-01T11:46:01.086Z,94644.00
2023-05-01T11:47:01.196Z,94644.00